Time;durP1;ratioP1;P1;durP2;ratioP2;P2;SDS_P1;SDS_P2;PMS_P1;PMS_P2;Temp;Humidity;BMP_temperature;BMP_pressure;BME280_temperature;BME280_humidity;BME280_pressure;Samples;Min_cycle;Max_cycle;Signal;HPM_P1;HPM_P2
2022/11/06 00:00:28;;;;;;;4.43;3.40;;;;;;;;;;5093479;28;20203;-46
2022/11/06 00:02:56;;;;;;;3.30;3.00;;;;;;;;;;5093761;28;20195;-46
2022/11/06 00:08:07;;;;;;;7.67;3.40;;;;;;;;;;5093397;28;20630;-46
2022/11/06 00:10:33;;;;;;;5.37;3.60;;;;;;;;;;5093667;28;20195;-46
2022/11/06 00:13:00;;;;;;;4.97;3.60;;;;;;;;;;5093079;28;20195;-46
2022/11/06 00:15:27;;;;;;;6.23;3.73;;;;;;;;;;5093302;28;20676;-46
2022/11/06 00:17:53;;;;;;;4.37;3.47;;;;;;;;;;5093643;28;20207;-46
2022/11/06 00:20:19;;;;;;;5.10;3.20;;;;;;;;;;5092818;28;20191;-46
2022/11/06 00:22:45;;;;;;;7.37;3.50;;;;;;;;;;5093413;28;20202;-46
2022/11/06 00:25:11;;;;;;;7.23;3.60;;;;;;;;;;5093362;28;20199;-45
2022/11/06 00:27:38;;;;;;;6.27;3.80;;;;;;;;;;5093335;28;20195;-47
2022/11/06 00:30:07;;;;;;;4.77;3.60;;;;;;;;;;5093125;28;20217;-45
2022/11/06 00:32:33;;;;;;;6.63;4.20;;;;;;;;;;5092824;28;20203;-45
2022/11/06 00:34:59;;;;;;;6.90;3.77;;;;;;;;;;5093047;28;20195;-47
2022/11/06 00:37:25;;;;;;;8.57;4.10;;;;;;;;;;5093036;28;20283;-46
2022/11/06 00:39:51;;;;;;;7.90;4.30;;;;;;;;;;5092648;28;20730;-45
2022/11/06 00:42:17;;;;;;;11.37;3.80;;;;;;;;;;5092926;28;20191;-46
2022/11/06 00:44:43;;;;;;;7.60;4.07;;;;;;;;;;5092626;28;20232;-45
2022/11/06 00:47:11;;;;;;;6.40;3.83;;;;;;;;;;5093078;28;20187;-46
2022/11/06 00:49:37;;;;;;;6.03;3.40;;;;;;;;;;5092599;28;20203;-46
2022/11/06 00:52:04;;;;;;;7.83;4.20;;;;;;;;;;5092458;28;20234;-46
2022/11/06 00:54:30;;;;;;;6.17;3.70;;;;;;;;;;5092787;28;20209;-46
2022/11/06 00:56:56;;;;;;;6.00;3.60;;;;;;;;;;5091734;28;20298;-45
2022/11/06 00:59:22;;;;;;;6.13;3.60;;;;;;;;;;5092871;28;20203;-46
2022/11/06 01:01:48;;;;;;;5.90;3.50;;;;;;;;;;5088636;28;20645;-46
2022/11/06 01:04:16;;;;;;;4.60;3.57;;;;;;;;;;5092494;28;20205;-47
2022/11/06 01:06:43;;;;;;;6.03;3.30;;;;;;;;;;5092501;28;20206;-45
2022/11/06 01:09:10;;;;;;;4.20;3.37;;;;;;;;;;5092700;28;20306;-46
2022/11/06 01:11:38;;;;;;;6.33;4.10;;;;;;;;;;5092400;28;20206;-45
2022/11/06 01:14:05;;;;;;;8.30;3.90;;;;;;;;;;5092555;28;20286;-46
2022/11/06 01:16:31;;;;;;;6.07;3.80;;;;;;;;;;5092388;28;20215;-46
2022/11/06 01:18:58;;;;;;;5.53;3.60;;;;;;;;;;5092340;28;20199;-46
2022/11/06 01:21:26;;;;;;;5.90;3.90;;;;;;;;;;5092381;28;20561;-46
2022/11/06 01:23:53;;;;;;;5.77;3.50;;;;;;;;;;5092004;28;20201;-45
2022/11/06 01:26:19;;;;;;;3.43;3.10;;;;;;;;;;5091982;28;20556;-44
2022/11/06 01:28:45;;;;;;;5.30;4.37;;;;;;;;;;5092571;28;20294;-45
2022/11/06 01:31:12;;;;;;;3.33;2.90;;;;;;;;;;5091819;28;20242;-44
2022/11/06 01:33:38;;;;;;;8.00;3.40;;;;;;;;;;5091867;28;20203;-44
2022/11/06 01:36:05;;;;;;;3.70;3.40;;;;;;;;;;5090488;28;20238;-44
2022/11/06 01:38:33;;;;;;;5.37;3.20;;;;;;;;;;5091590;28;20203;-44
2022/11/06 01:40:59;;;;;;;4.20;3.27;;;;;;;;;;5091817;28;20234;-45
2022/11/06 01:43:43;;;;;;;4.50;3.00;;;;;;;;;;5091826;28;20252;-44
2022/11/06 01:46:09;;;;;;;6.87;3.33;;;;;;;;;;5091819;28;20201;-45
2022/11/06 01:48:36;;;;;;;5.30;3.27;;;;;;;;;;5091482;28;20198;-44
2022/11/06 01:51:02;;;;;;;4.10;3.07;;;;;;;;;;5090808;28;20645;-44
2022/11/06 01:53:28;;;;;;;5.40;3.40;;;;;;;;;;5091018;28;20237;-44
2022/11/06 01:55:58;;;;;;;4.80;3.63;;;;;;;;;;5091522;28;20230;-45
2022/11/06 01:58:25;;;;;;;3.83;2.97;;;;;;;;;;5091393;28;20209;-44
2022/11/06 02:00:51;;;;;;;4.70;3.07;;;;;;;;;;5091284;28;20194;-45
2022/11/06 02:03:17;;;;;;;5.67;3.63;;;;;;;;;;5091307;28;20194;-44
2022/11/06 02:05:44;;;;;;;5.50;3.17;;;;;;;;;;5090421;28;20237;-44
2022/11/06 02:08:12;;;;;;;5.83;3.13;;;;;;;;;;5091164;28;20222;-44
2022/11/06 02:10:39;;;;;;;4.13;3.00;;;;;;;;;;5091387;28;20201;-44
2022/11/06 02:13:14;;;;;;;4.27;3.10;;;;;;;;;;5091102;28;20199;-45
2022/11/06 02:15:45;;;;;;;4.47;3.13;;;;;;;;;;5090250;28;20222;-44
2022/11/06 02:18:16;;;;;;;6.77;2.93;;;;;;;;;;5091448;28;20194;-44
2022/11/06 02:20:46;;;;;;;5.33;3.17;;;;;;;;;;5091124;28;20190;-44
2022/11/06 02:23:22;;;;;;;6.27;2.90;;;;;;;;;;5091447;28;20553;-45
2022/11/06 02:25:51;;;;;;;5.17;3.10;;;;;;;;;;5091113;28;20253;-44
2022/11/06 02:28:21;;;;;;;4.63;3.17;;;;;;;;;;5091252;28;20290;-45
2022/11/06 02:30:49;;;;;;;4.97;2.87;;;;;;;;;;5090989;28;20207;-45
2022/11/06 02:33:16;;;;;;;4.30;3.10;;;;;;;;;;5091364;28;20202;-45
2022/11/06 02:35:46;;;;;;;5.47;3.27;;;;;;;;;;5090983;28;20669;-45
2022/11/06 02:38:13;;;;;;;5.13;3.50;;;;;;;;;;5091232;28;20211;-45
2022/11/06 02:40:42;;;;;;;7.00;3.20;;;;;;;;;;5090678;28;20190;-45
2022/11/06 02:43:09;;;;;;;3.97;3.20;;;;;;;;;;5090081;28;20660;-45
2022/11/06 02:45:40;;;;;;;5.63;3.27;;;;;;;;;;5091194;28;20198;-45
2022/11/06 02:48:07;;;;;;;5.87;3.13;;;;;;;;;;5091245;28;20869;-45
2022/11/06 02:50:38;;;;;;;4.73;2.80;;;;;;;;;;5090693;28;20227;-45
2022/11/06 02:53:05;;;;;;;6.20;2.97;;;;;;;;;;5091120;28;20264;-45
2022/11/06 02:55:35;;;;;;;5.50;3.50;;;;;;;;;;5090761;28;20201;-45
2022/11/06 02:58:04;;;;;;;6.10;2.97;;;;;;;;;;5090873;28;20269;-45
2022/11/06 03:00:31;;;;;;;6.13;3.60;;;;;;;;;;5091120;28;20199;-45
2022/11/06 03:03:00;;;;;;;5.77;3.20;;;;;;;;;;5090866;28;20248;-45
2022/11/06 03:05:28;;;;;;;5.70;3.00;;;;;;;;;;5090897;28;20199;-45
2022/11/06 03:07:56;;;;;;;4.40;3.23;;;;;;;;;;5090469;28;20219;-45
2022/11/06 03:10:26;;;;;;;4.03;3.10;;;;;;;;;;5090991;28;20568;-45
2022/11/06 03:12:55;;;;;;;5.40;3.10;;;;;;;;;;5090748;28;20259;-45
2022/11/06 03:15:25;;;;;;;5.00;3.17;;;;;;;;;;5088721;28;20205;-45
2022/11/06 03:17:58;;;;;;;4.80;3.17;;;;;;;;;;5090576;28;20254;-45
2022/11/06 03:20:29;;;;;;;5.00;3.13;;;;;;;;;;5089884;28;20841;-45
2022/11/06 03:22:58;;;;;;;9.57;3.40;;;;;;;;;;5089207;28;20673;-45
2022/11/06 03:25:27;;;;;;;5.20;3.43;;;;;;;;;;5090728;28;20643;-45
2022/11/06 03:27:58;;;;;;;4.93;3.23;;;;;;;;;;5090816;28;20288;-45
2022/11/06 03:30:24;;;;;;;4.43;3.10;;;;;;;;;;5094654;28;20203;-45
2022/11/06 03:32:51;;;;;;;7.60;3.27;;;;;;;;;;5094250;28;20661;-45
2022/11/06 03:35:21;;;;;;;4.47;3.43;;;;;;;;;;5094328;28;20199;-45
2022/11/06 03:37:51;;;;;;;5.67;2.97;;;;;;;;;;5094000;28;20225;-45
2022/11/06 03:40:19;;;;;;;6.17;3.27;;;;;;;;;;5094383;28;20199;-45
2022/11/06 03:42:46;;;;;;;4.83;3.03;;;;;;;;;;5093955;28;20218;-45
2022/11/06 03:45:14;;;;;;;6.53;3.60;;;;;;;;;;5094162;28;20203;-45
2022/11/06 03:47:42;;;;;;;4.00;3.00;;;;;;;;;;5094014;28;20260;-45
2022/11/06 03:50:13;;;;;;;4.07;3.57;;;;;;;;;;5094035;28;20219;-45
2022/11/06 03:52:42;;;;;;;8.37;3.37;;;;;;;;;;5093917;28;20589;-45
2022/11/06 03:55:12;;;;;;;4.93;3.50;;;;;;;;;;5094016;28;20191;-45
2022/11/06 03:57:40;;;;;;;6.07;3.17;;;;;;;;;;5093595;28;20655;-45
2022/11/06 04:00:07;;;;;;;4.27;3.40;;;;;;;;;;5093830;28;20225;-45
2022/11/06 04:02:35;;;;;;;6.37;3.50;;;;;;;;;;5093755;28;20736;-45
2022/11/06 04:05:04;;;;;;;7.03;4.03;;;;;;;;;;5093768;28;20677;-45
2022/11/06 04:07:33;;;;;;;5.07;3.10;;;;;;;;;;5093670;28;20195;-45
2022/11/06 04:15:36;;;;;;;7.73;3.53;;;;;;;;;;5093501;28;20202;-45
2022/11/06 04:18:02;;;;;;;4.07;3.37;;;;;;;;;;5093375;28;20234;-45
2022/11/06 04:23:21;;;;;;;4.57;3.63;;;;;;;;;;5093440;28;20317;-45
2022/11/06 04:28:43;;;;;;;5.40;3.80;;;;;;;;;;5092985;28;20198;-45
2022/11/06 04:31:11;;;;;;;5.83;3.63;;;;;;;;;;5093332;28;20207;-46
2022/11/06 04:33:41;;;;;;;6.80;3.70;;;;;;;;;;5092293;28;20222;-45
2022/11/06 04:36:10;;;;;;;5.37;3.37;;;;;;;;;;5092761;28;20355;-45
2022/11/06 04:38:39;;;;;;;4.37;3.20;;;;;;;;;;5092619;28;20244;-45
2022/11/06 04:41:11;;;;;;;7.77;3.80;;;;;;;;;;5092926;28;20198;-45
2022/11/06 04:43:41;;;;;;;4.17;3.50;;;;;;;;;;5092553;28;20195;-45
2022/11/06 04:46:08;;;;;;;4.03;3.63;;;;;;;;;;5092151;28;20198;-45
2022/11/06 04:48:35;;;;;;;3.80;3.27;;;;;;;;;;5092515;28;20229;-45
2022/11/06 04:51:02;;;;;;;6.97;3.63;;;;;;;;;;5091490;28;20315;-45
2022/11/06 04:53:29;;;;;;;5.47;3.80;;;;;;;;;;5092759;28;20229;-45
2022/11/06 04:55:56;;;;;;;5.90;4.00;;;;;;;;;;5092423;28;20773;-45
2022/11/06 04:58:22;;;;;;;4.63;3.77;;;;;;;;;;5092649;28;20202;-45
2022/11/06 05:00:50;;;;;;;5.00;3.50;;;;;;;;;;5092637;28;20231;-45
2022/11/06 05:03:16;;;;;;;5.13;3.43;;;;;;;;;;5092442;28;20297;-45
2022/11/06 05:05:42;;;;;;;5.00;3.70;;;;;;;;;;5092403;28;20250;-45
2022/11/06 05:08:12;;;;;;;5.23;3.57;;;;;;;;;;5092430;28;20218;-45
2022/11/06 05:10:38;;;;;;;3.80;3.20;;;;;;;;;;5092417;28;20229;-45
2022/11/06 05:13:04;;;;;;;5.30;3.33;;;;;;;;;;5092525;28;20195;-46
2022/11/06 05:15:30;;;;;;;6.00;3.40;;;;;;;;;;5092522;28;20260;-45
2022/11/06 05:17:58;;;;;;;5.63;3.70;;;;;;;;;;5091549;28;20702;-45
2022/11/06 05:20:24;;;;;;;6.90;3.17;;;;;;;;;;5092087;28;20203;-45
2022/11/06 05:22:59;;;;;;;5.57;3.93;;;;;;;;;;5091610;28;20205;-45
2022/11/06 05:25:26;;;;;;;5.20;3.70;;;;;;;;;;5091941;28;20283;-45
2022/11/06 05:27:52;;;;;;;5.50;3.70;;;;;;;;;;5091788;28;20266;-45
2022/11/06 05:30:18;;;;;;;12.57;4.70;;;;;;;;;;5091687;28;20222;-44
2022/11/06 05:32:44;;;;;;;5.53;3.73;;;;;;;;;;5091941;28;20233;-44
2022/11/06 05:35:11;;;;;;;7.90;3.73;;;;;;;;;;5091824;28;20198;-44
2022/11/06 05:37:37;;;;;;;5.87;3.33;;;;;;;;;;5091650;28;20231;-44
2022/11/06 05:40:04;;;;;;;5.77;3.27;;;;;;;;;;5091577;28;20210;-44
2022/11/06 05:42:30;;;;;;;4.67;3.30;;;;;;;;;;5091760;28;20379;-44
2022/11/06 05:44:56;;;;;;;7.53;3.63;;;;;;;;;;5091677;28;20633;-44
2022/11/06 05:47:22;;;;;;;6.53;3.70;;;;;;;;;;5091661;28;20210;-44
2022/11/06 05:49:48;;;;;;;4.50;3.10;;;;;;;;;;5090995;28;20233;-44
2022/11/06 05:52:15;;;;;;;3.67;2.90;;;;;;;;;;5090593;28;20243;-44
2022/11/06 05:54:41;;;;;;;6.50;2.90;;;;;;;;;;5091733;28;20256;-44
2022/11/06 05:57:07;;;;;;;4.63;2.93;;;;;;;;;;5091666;28;20230;-44
2022/11/06 05:59:33;;;;;;;6.53;3.33;;;;;;;;;;5091904;28;20555;-44
2022/11/06 06:01:59;;;;;;;4.43;3.10;;;;;;;;;;5091631;28;20252;-44
2022/11/06 06:04:25;;;;;;;7.70;3.20;;;;;;;;;;5091831;28;20199;-44
2022/11/06 06:06:51;;;;;;;8.10;3.43;;;;;;;;;;5091584;28;20716;-44
2022/11/06 06:09:19;;;;;;;5.40;3.10;;;;;;;;;;5091556;28;20250;-44
2022/11/06 06:11:45;;;;;;;4.03;3.47;;;;;;;;;;5091376;28;20202;-45
2022/11/06 06:14:11;;;;;;;5.67;3.30;;;;;;;;;;5091478;28;20241;-44
2022/11/06 06:16:37;;;;;;;5.23;3.37;;;;;;;;;;5091341;28;20211;-44
2022/11/06 06:19:03;;;;;;;9.60;3.20;;;;;;;;;;5091339;28;20230;-45
2022/11/06 06:21:29;;;;;;;4.30;2.70;;;;;;;;;;5091352;28;20726;-44
2022/11/06 06:23:55;;;;;;;5.57;3.10;;;;;;;;;;5091427;28;20249;-44
2022/11/06 06:26:23;;;;;;;8.00;3.60;;;;;;;;;;5090974;28;20248;-44
2022/11/06 06:28:49;;;;;;;4.77;2.70;;;;;;;;;;5090773;28;20657;-44
2022/11/06 06:31:15;;;;;;;4.23;3.10;;;;;;;;;;5091431;28;20487;-44
2022/11/06 06:33:41;;;;;;;6.60;3.40;;;;;;;;;;5091217;28;20281;-45
2022/11/06 06:36:07;;;;;;;4.57;2.80;;;;;;;;;;5091376;28;20205;-45
2022/11/06 06:38:33;;;;;;;4.67;3.00;;;;;;;;;;5091496;28;20526;-45
2022/11/06 06:41:01;;;;;;;4.70;2.63;;;;;;;;;;5091287;28;20252;-45
2022/11/06 06:43:28;;;;;;;4.77;3.00;;;;;;;;;;5091210;28;20202;-45
2022/11/06 06:45:57;;;;;;;3.73;3.00;;;;;;;;;;5091108;28;20328;-45
2022/11/06 06:48:23;;;;;;;4.80;2.80;;;;;;;;;;5090683;28;20610;-44
2022/11/06 06:50:49;;;;;;;3.93;3.40;;;;;;;;;;5089947;28;20246;-44
2022/11/06 06:53:15;;;;;;;5.30;2.77;;;;;;;;;;5091490;28;20248;-44
2022/11/06 06:55:41;;;;;;;5.63;3.23;;;;;;;;;;5091138;28;20222;-44
2022/11/06 06:58:09;;;;;;;4.27;2.73;;;;;;;;;;5091031;28;20693;-44
2022/11/06 07:00:37;;;;;;;4.73;2.93;;;;;;;;;;5091185;28;20210;-44
2022/11/06 07:03:03;;;;;;;5.80;3.27;;;;;;;;;;5093141;28;20543;-44
2022/11/06 07:05:29;;;;;;;3.30;2.60;;;;;;;;;;5095160;28;20236;-45
2022/11/06 07:07:55;;;;;;;11.43;5.17;;;;;;;;;;5093824;28;20709;-44
2022/11/06 07:10:21;;;;;;;4.00;2.87;;;;;;;;;;5093948;28;20241;-44
2022/11/06 07:12:47;;;;;;;2.83;2.50;;;;;;;;;;5093948;28;20262;-45
2022/11/06 07:15:13;;;;;;;5.40;2.80;;;;;;;;;;5093098;28;20203;-44
2022/11/06 07:17:40;;;;;;;5.70;3.07;;;;;;;;;;5094437;28;20573;-44
2022/11/06 07:20:07;;;;;;;5.73;3.37;;;;;;;;;;5094108;28;20202;-44
2022/11/06 07:22:33;;;;;;;4.57;2.83;;;;;;;;;;5095078;28;20199;-44
2022/11/06 07:24:59;;;;;;;4.27;2.63;;;;;;;;;;5094449;28;20195;-45
2022/11/06 07:27:25;;;;;;;3.60;2.20;;;;;;;;;;5094847;28;20202;-45
2022/11/06 07:29:52;;;;;;;5.57;2.50;;;;;;;;;;5094730;28;20191;-45
2022/11/06 07:32:18;;;;;;;3.23;2.67;;;;;;;;;;5094392;28;20584;-44
2022/11/06 07:34:45;;;;;;;4.27;2.57;;;;;;;;;;5093687;28;20212;-44
2022/11/06 07:37:11;;;;;;;5.10;3.00;;;;;;;;;;5094247;28;20226;-45
2022/11/06 07:39:37;;;;;;;3.70;2.37;;;;;;;;;;5094266;28;20195;-46
2022/11/06 07:42:03;;;;;;;5.17;2.80;;;;;;;;;;5094004;28;20564;-45
2022/11/06 07:44:29;;;;;;;3.37;2.60;;;;;;;;;;5093594;28;20194;-44
2022/11/06 07:46:55;;;;;;;4.67;2.43;;;;;;;;;;5094077;28;20199;-45
2022/11/06 07:49:21;;;;;;;4.13;2.20;;;;;;;;;;5093912;28;20206;-45
2022/11/06 07:51:49;;;;;;;4.33;3.03;;;;;;;;;;5093903;28;20238;-45
2022/11/06 07:54:15;;;;;;;3.50;2.67;;;;;;;;;;5092546;28;20409;-45
2022/11/06 07:56:41;;;;;;;4.83;2.60;;;;;;;;;;5093575;28;20313;-45
2022/11/06 07:59:07;;;;;;;2.87;2.43;;;;;;;;;;5092821;28;20282;-45
2022/11/06 08:01:33;;;;;;;6.10;2.57;;;;;;;;;;5093196;28;20273;-45
2022/11/06 08:03:59;;;;;;;4.47;2.57;;;;;;;;;;5092503;28;20753;-45
2022/11/06 08:06:25;;;;;;;6.03;2.40;;;;;;;;;;5093505;28;20289;-46
2022/11/06 08:08:52;;;;;;;6.83;2.73;;;;;;;;;;5092813;28;20209;-44
2022/11/06 08:11:18;;;;;;;5.37;2.50;;;;;;;;;;5091238;28;20230;-45
2022/11/06 08:13:44;;;;;;;3.43;2.27;;;;;;;;;;5092553;28;20595;-45
2022/11/06 08:16:11;;;;;;;3.50;2.43;;;;;;;;;;5093884;28;20199;-45
2022/11/06 08:18:38;;;;;;;3.90;2.27;;;;;;;;;;5093484;28;20310;-47
2022/11/06 08:21:04;;;;;;;4.13;2.20;;;;;;;;;;5093485;28;20210;-46
2022/11/06 08:23:30;;;;;;;5.87;2.77;;;;;;;;;;5093421;28;20191;-46
2022/11/06 08:25:59;;;;;;;3.63;2.40;;;;;;;;;;5092872;28;20194;-46
2022/11/06 08:28:25;;;;;;;5.30;2.63;;;;;;;;;;5093252;28;20226;-45
2022/11/06 08:30:52;;;;;;;4.40;2.20;;;;;;;;;;5092526;28;20201;-45
2022/11/06 08:33:18;;;;;;;3.07;2.20;;;;;;;;;;5092966;28;20205;-46
2022/11/06 08:35:44;;;;;;;4.37;2.20;;;;;;;;;;5093208;28;20195;-45
2022/11/06 08:38:10;;;;;;;4.13;2.33;;;;;;;;;;5093152;28;20223;-45
2022/11/06 08:40:37;;;;;;;3.90;2.43;;;;;;;;;;5093015;28;20191;-45
2022/11/06 08:43:06;;;;;;;5.03;2.40;;;;;;;;;;5092877;28;20241;-45
2022/11/06 08:45:32;;;;;;;5.73;2.27;;;;;;;;;;5093374;28;20199;-46
2022/11/06 08:48:01;;;;;;;3.50;2.13;;;;;;;;;;5092443;28;20282;-46
2022/11/06 08:50:27;;;;;;;4.77;2.20;;;;;;;;;;5093311;28;20258;-45
2022/11/06 08:52:55;;;;;;;2.83;2.20;;;;;;;;;;5093270;28;20573;-46
2022/11/06 08:55:21;;;;;;;4.17;2.30;;;;;;;;;;5093300;28;20207;-46
2022/11/06 08:57:47;;;;;;;3.87;2.73;;;;;;;;;;5093019;28;20262;-46
2022/11/06 09:00:15;;;;;;;3.83;2.83;;;;;;;;;;5093307;28;20226;-46
2022/11/06 09:02:41;;;;;;;5.80;2.73;;;;;;;;;;5093039;28;20302;-45
2022/11/06 09:05:08;;;;;;;2.37;1.90;;;;;;;;;;5093107;28;20199;-46
2022/11/06 09:07:34;;;;;;;3.50;2.33;;;;;;;;;;5093056;28;20206;-46
2022/11/06 09:10:00;;;;;;;4.93;2.53;;;;;;;;;;5092839;28;20330;-46
2022/11/06 09:12:26;;;;;;;2.83;2.47;;;;;;;;;;5092879;28;20226;-46
2022/11/06 09:14:52;;;;;;;4.00;2.50;;;;;;;;;;5092847;28;20208;-46
2022/11/06 09:17:22;;;;;;;3.20;2.30;;;;;;;;;;5092783;28;20226;-45
2022/11/06 09:19:48;;;;;;;4.43;2.40;;;;;;;;;;5092694;28;20278;-46
2022/11/06 09:22:14;;;;;;;5.17;2.40;;;;;;;;;;5092818;28;20229;-46
2022/11/06 09:24:40;;;;;;;3.17;2.10;;;;;;;;;;5092635;28;20206;-46
2022/11/06 09:27:06;;;;;;;5.23;2.60;;;;;;;;;;5092760;28;20191;-46
2022/11/06 09:29:32;;;;;;;5.40;2.37;;;;;;;;;;5092602;28;20202;-47
2022/11/06 09:31:58;;;;;;;5.77;2.10;;;;;;;;;;5092557;28;20222;-46
2022/11/06 09:34:26;;;;;;;4.80;2.60;;;;;;;;;;5092585;28;20195;-46
2022/11/06 09:36:52;;;;;;;6.03;2.43;;;;;;;;;;5092391;28;20324;-46
2022/11/06 09:39:18;;;;;;;4.47;2.40;;;;;;;;;;5092562;28;20851;-46
2022/11/06 09:41:48;;;;;;;3.43;2.30;;;;;;;;;;5092378;28;20202;-46
2022/11/06 09:44:22;;;;;;;4.13;2.63;;;;;;;;;;5092496;28;20218;-46
2022/11/06 09:46:48;;;;;;;2.97;2.07;;;;;;;;;;5092348;28;20218;-46
2022/11/06 09:49:18;;;;;;;3.67;2.27;;;;;;;;;;5092373;28;20195;-46
2022/11/06 09:51:48;;;;;;;5.03;2.30;;;;;;;;;;5092276;28;20234;-46
2022/11/06 09:54:15;;;;;;;4.77;2.10;;;;;;;;;;5092272;28;20197;-46
2022/11/06 09:56:43;;;;;;;2.33;2.00;;;;;;;;;;5091967;28;20313;-46
2022/11/06 09:59:11;;;;;;;7.27;2.20;;;;;;;;;;5092123;28;20207;-46
2022/11/06 10:01:40;;;;;;;3.93;2.23;;;;;;;;;;5092134;28;20202;-46
2022/11/06 10:04:10;;;;;;;4.23;2.00;;;;;;;;;;5092032;28;20298;-46
2022/11/06 10:06:36;;;;;;;2.90;1.80;;;;;;;;;;5092018;28;20665;-45
2022/11/06 10:09:06;;;;;;;3.17;2.07;;;;;;;;;;5091861;28;20271;-46
2022/11/06 10:11:40;;;;;;;3.00;2.00;;;;;;;;;;5092015;28;20619;-46
2022/11/06 10:14:11;;;;;;;2.67;1.80;;;;;;;;;;5092168;28;20397;-46
2022/11/06 10:16:42;;;;;;;2.67;1.70;;;;;;;;;;5091909;28;20223;-46
2022/11/06 10:19:10;;;;;;;3.03;1.90;;;;;;;;;;5091986;28;20196;-46
2022/11/06 10:21:43;;;;;;;3.67;1.90;;;;;;;;;;5091828;28;20226;-46
2022/11/06 10:24:14;;;;;;;3.50;2.13;;;;;;;;;;5091867;28;20199;-46
2022/11/06 10:26:41;;;;;;;4.37;2.20;;;;;;;;;;5091720;28;20264;-46
2022/11/06 10:29:15;;;;;;;3.40;1.80;;;;;;;;;;5091839;28;20278;-47
2022/11/06 10:31:45;;;;;;;4.03;1.97;;;;;;;;;;5091675;28;20183;-47
2022/11/06 10:34:12;;;;;;;3.80;1.90;;;;;;;;;;5091768;28;20195;-47
2022/11/06 10:36:41;;;;;;;3.33;2.00;;;;;;;;;;5091638;28;20214;-47
2022/11/06 10:39:13;;;;;;;3.20;2.00;;;;;;;;;;5095840;28;20535;-47
2022/11/06 10:41:40;;;;;;;2.70;1.87;;;;;;;;;;5095648;28;20194;-47
2022/11/06 10:44:07;;;;;;;2.87;1.50;;;;;;;;;;5095071;28;20205;-47
2022/11/06 10:46:35;;;;;;;3.60;1.97;;;;;;;;;;5093609;28;20649;-46
2022/11/06 10:49:03;;;;;;;4.37;1.70;;;;;;;;;;5093453;28;20226;-46
2022/11/06 10:51:36;;;;;;;3.83;1.80;;;;;;;;;;5093209;28;20575;-47
2022/11/06 10:54:07;;;;;;;4.00;1.57;;;;;;;;;;5093532;28;20194;-46
2022/11/06 10:56:46;;;;;;;2.17;1.50;;;;;;;;;;5095222;28;20700;-46
2022/11/06 10:59:12;;;;;;;3.27;1.80;;;;;;;;;;5095399;28;20214;-47
2022/11/06 11:01:38;;;;;;;2.30;1.70;;;;;;;;;;5094458;28;20191;-47
2022/11/06 11:04:04;;;;;;;2.00;1.80;;;;;;;;;;5094982;28;20238;-46
2022/11/06 11:06:31;;;;;;;4.23;1.80;;;;;;;;;;5093551;28;20198;-47
2022/11/06 11:08:57;;;;;;;2.23;1.50;;;;;;;;;;5092958;28;20268;-48
2022/11/06 11:11:23;;;;;;;2.77;1.50;;;;;;;;;;5094060;28;20232;-47
2022/11/06 11:14:11;;;;;;;2.67;1.63;;;;;;;;;;5094623;28;20275;-47
2022/11/06 11:16:38;;;;;;;1.80;1.60;;;;;;;;;;5095093;28;20554;-47
2022/11/06 11:19:14;;;;;;;2.37;1.63;;;;;;;;;;5093046;28;20205;-47
2022/11/06 11:21:51;;;;;;;2.87;1.70;;;;;;;;;;5095200;28;20234;-47
2022/11/06 11:24:17;;;;;;;1.73;1.63;;;;;;;;;;5094940;28;20217;-47
2022/11/06 11:26:45;;;;;;;2.40;1.60;;;;;;;;;;5095122;28;20194;-47
2022/11/06 11:29:14;;;;;;;4.03;1.87;;;;;;;;;;5094271;28;20195;-47
2022/11/06 11:31:44;;;;;;;2.97;1.83;;;;;;;;;;5094519;28;20203;-47
2022/11/06 11:34:15;;;;;;;2.40;1.80;;;;;;;;;;5093156;28;20202;-47
2022/11/06 11:36:50;;;;;;;2.27;1.80;;;;;;;;;;5094853;28;20222;-47
2022/11/06 11:39:17;;;;;;;4.47;2.23;;;;;;;;;;5094985;28;20198;-46
2022/11/06 11:41:43;;;;;;;3.47;1.93;;;;;;;;;;5094669;28;20201;-46
2022/11/06 11:44:16;;;;;;;2.47;1.80;;;;;;;;;;5094813;28;20282;-48
2022/11/06 11:46:45;;;;;;;6.07;2.10;;;;;;;;;;5094664;28;20208;-48
2022/11/06 11:49:25;;;;;;;3.30;1.90;;;;;;;;;;5093231;28;20209;-47
2022/11/06 11:51:51;;;;;;;3.33;1.93;;;;;;;;;;5094147;28;20863;-47
2022/11/06 11:54:18;;;;;;;3.23;1.77;;;;;;;;;;5094406;28;20238;-47
2022/11/06 11:56:45;;;;;;;2.90;2.10;;;;;;;;;;5094007;28;20226;-47
2022/11/06 11:59:15;;;;;;;2.70;2.00;;;;;;;;;;5092297;28;20210;-47
2022/11/06 12:01:42;;;;;;;4.57;1.83;;;;;;;;;;5094449;28;20210;-47
2022/11/06 12:04:13;;;;;;;3.20;1.93;;;;;;;;;;5094098;28;20206;-47
2022/11/06 12:06:48;;;;;;;4.43;2.53;;;;;;;;;;5092548;28;20186;-47
2022/11/06 12:09:14;;;;;;;6.00;3.53;;;;;;;;;;5093604;28;20752;-47
2022/11/06 12:11:42;;;;;;;13.90;9.77;;;;;;;;;;5093872;28;20274;-47
2022/11/06 12:14:25;;;;;;;11.73;8.73;;;;;;;;;;5093878;28;20365;-46
2022/11/06 12:16:55;;;;;;;13.90;11.77;;;;;;;;;;5093871;28;20799;-46
2022/11/06 12:19:21;;;;;;;45.33;38.17;;;;;;;;;;5093791;28;20203;-46
2022/11/06 12:21:50;;;;;;;17.97;15.17;;;;;;;;;;5093798;28;20199;-47
2022/11/06 12:24:18;;;;;;;19.77;15.23;;;;;;;;;;5093941;28;20203;-46
2022/11/06 12:26:47;;;;;;;3.77;2.40;;;;;;;;;;5092858;28;20198;-47
2022/11/06 12:29:14;;;;;;;78.27;61.87;;;;;;;;;;5093789;28;20226;-46
2022/11/06 12:31:44;;;;;;;5.20;2.60;;;;;;;;;;5093508;28;20216;-47
2022/11/06 12:34:13;;;;;;;2.57;1.93;;;;;;;;;;5093661;28;20245;-46
2022/11/06 12:36:43;;;;;;;3.13;2.50;;;;;;;;;;5093694;28;20280;-46
2022/11/06 12:39:11;;;;;;;17.47;13.43;;;;;;;;;;5093629;28;20195;-47
2022/11/06 12:41:40;;;;;;;2.63;2.30;;;;;;;;;;5093338;28;20191;-46
2022/11/06 12:44:09;;;;;;;5.20;2.90;;;;;;;;;;5093505;28;20892;-47
2022/11/06 12:46:40;;;;;;;16.67;11.93;;;;;;;;;;5093320;28;20650;-47
2022/11/06 12:49:16;;;;;;;3.87;2.50;;;;;;;;;;5093326;28;20187;-47
2022/11/06 12:51:47;;;;;;;2.57;2.37;;;;;;;;;;5093405;28;20241;-47
2022/11/06 12:54:30;;;;;;;4.70;2.07;;;;;;;;;;5093457;28;20198;-46
2022/11/06 12:57:00;;;;;;;3.17;1.80;;;;;;;;;;5092981;28;20377;-47
2022/11/06 12:59:33;;;;;;;3.53;1.80;;;;;;;;;;5093424;28;20194;-47
2022/11/06 13:02:08;;;;;;;3.60;1.57;;;;;;;;;;5093031;28;20334;-47
2022/11/06 13:04:38;;;;;;;3.33;1.90;;;;;;;;;;5093284;28;20194;-49
2022/11/06 13:07:23;;;;;;;4.53;1.93;;;;;;;;;;5093238;28;20203;-48
2022/11/06 13:09:54;;;;;;;2.57;1.70;;;;;;;;;;5093034;28;20236;-47
2022/11/06 13:12:23;;;;;;;2.87;1.93;;;;;;;;;;5093236;28;20199;-48
2022/11/06 13:15:01;;;;;;;2.43;1.87;;;;;;;;;;5093123;28;20199;-47
2022/11/06 13:17:30;;;;;;;3.90;2.20;;;;;;;;;;5093183;28;20226;-47
2022/11/06 13:20:01;;;;;;;2.50;1.87;;;;;;;;;;5092918;28;20202;-48
2022/11/06 13:22:29;;;;;;;4.50;2.30;;;;;;;;;;5092992;28;20207;-47
2022/11/06 13:24:59;;;;;;;3.67;1.90;;;;;;;;;;5092597;28;20194;-47
2022/11/06 13:27:27;;;;;;;3.67;1.87;;;;;;;;;;5092755;28;20214;-47
2022/11/06 13:29:55;;;;;;;3.63;2.07;;;;;;;;;;5092751;28;20680;-47
2022/11/06 13:32:22;;;;;;;3.23;2.13;;;;;;;;;;5092719;28;20735;-47
2022/11/06 13:34:50;;;;;;;2.37;1.90;;;;;;;;;;5088531;28;20657;-47
2022/11/06 13:37:19;;;;;;;2.93;2.10;;;;;;;;;;5090396;28;20248;-47
2022/11/06 13:39:47;;;;;;;3.20;2.20;;;;;;;;;;5092185;28;20199;-47
2022/11/06 13:42:17;;;;;;;4.10;2.00;;;;;;;;;;5091846;28;20252;-47
2022/11/06 13:44:44;;;;;;;3.57;2.30;;;;;;;;;;5092031;28;20238;-47
2022/11/06 13:47:13;;;;;;;3.07;2.40;;;;;;;;;;5091616;28;20195;-47
2022/11/06 13:49:43;;;;;;;2.87;1.80;;;;;;;;;;5092151;28;20193;-47
2022/11/06 13:52:12;;;;;;;5.27;2.23;;;;;;;;;;5089238;28;20265;-47
2022/11/06 13:54:46;;;;;;;4.27;1.90;;;;;;;;;;5092034;28;20223;-47
2022/11/06 13:57:25;;;;;;;3.50;2.17;;;;;;;;;;5092017;28;20645;-47
2022/11/06 14:00:01;;;;;;;3.10;2.20;;;;;;;;;;5092229;28;20431;-47
2022/11/06 14:02:44;;;;;;;5.07;2.20;;;;;;;;;;5092157;28;20209;-47
2022/11/06 14:05:42;;;;;;;4.57;2.20;;;;;;;;;;5091941;28;20636;-47
2022/11/06 14:08:12;;;;;;;3.77;2.20;;;;;;;;;;5091929;28;20246;-47
2022/11/06 14:10:46;;;;;;;5.20;2.30;;;;;;;;;;5091960;28;20268;-47
2022/11/06 14:13:14;;;;;;;4.20;2.13;;;;;;;;;;5091291;28;20234;-47
2022/11/06 14:15:41;;;;;;;2.90;2.17;;;;;;;;;;5091950;28;20198;-47
2022/11/06 14:18:12;;;;;;;5.20;2.80;;;;;;;;;;5091796;28;20236;-47
2022/11/06 14:20:39;;;;;;;4.87;3.07;;;;;;;;;;5092043;28;20194;-47
2022/11/06 14:23:23;;;;;;;3.57;2.70;;;;;;;;;;5091700;28;20195;-47
2022/11/06 14:25:58;;;;;;;2.87;2.20;;;;;;;;;;5091876;28;20275;-47
2022/11/06 14:28:31;;;;;;;4.43;2.70;;;;;;;;;;5092100;28;20195;-47
2022/11/06 14:30:57;;;;;;;3.40;2.20;;;;;;;;;;5091776;28;20194;-47
2022/11/06 14:33:38;;;;;;;5.10;2.27;;;;;;;;;;5091854;28;20195;-47
2022/11/06 14:36:14;;;;;;;4.60;2.30;;;;;;;;;;5078671;28;20210;-46
2022/11/06 14:38:41;;;;;;;3.83;2.23;;;;;;;;;;5091771;28;20261;-46
2022/11/06 14:41:22;;;;;;;4.57;2.20;;;;;;;;;;5091577;28;20390;-48
2022/11/06 14:43:50;;;;;;;4.43;2.10;;;;;;;;;;5091366;28;20202;-47
2022/11/06 14:46:17;;;;;;;4.13;2.30;;;;;;;;;;5091576;28;20198;-46
2022/11/06 14:48:44;;;;;;;6.67;2.20;;;;;;;;;;5091701;28;20201;-47
2022/11/06 14:51:11;;;;;;;5.97;2.30;;;;;;;;;;5091363;28;20249;-46
2022/11/06 14:53:39;;;;;;;3.97;1.90;;;;;;;;;;5091451;28;20211;-46
2022/11/06 14:56:07;;;;;;;3.23;2.20;;;;;;;;;;5091439;28;20202;-47
2022/11/06 14:58:34;;;;;;;5.73;2.63;;;;;;;;;;5091559;28;20230;-47
2022/11/06 15:01:11;;;;;;;4.10;2.10;;;;;;;;;;5091480;28;20649;-48
2022/11/06 15:03:43;;;;;;;3.23;2.27;;;;;;;;;;5091615;28;20238;-48